Terminal Aerodrome Forecast
Issued by NWS Melbourne, FL

Current Version | Previous Version | Text Only | Print | Product List | Glossary On
Versions: 1 2 3 4 5 6 7 8 9 10 11 12 13 14 15 16
000
FTUS42 KMLB 250541
TAFMLB
TAF
KMLB 250541Z 2506/2606 13006KT P6SM SCT200
     FM251400 17011KT P6SM SCT030
     FM252100 19012KT P6SM VCTS SCT035CB BKN060
     FM260100 21009KT P6SM SCT060 BKN200=

USA.gov is the U.S. government's official web portal to all federal, state and local government web resources and services.